Kokomo, IN

7:21 AM EDT on July 29, 2016 (GMT -0400)
Ruhl Garden | | Change Station

Elev 830 ft 40.47 °N, 86.05 °W | Updated 278 days ago

Partly Cloudy
Partly Cloudy
71 °F
Feels Like 71 °F
N
3
Wind Variable Wind from NE
Gusts mph

Today
High -- | Low -- °F
--% Chance of Precip.
Yesterday
High -- | Low -- °F
Precip. -- in
Pressure 29.93 in
Visibility 5.0 miles
Clouds Overcast 400 ft
Dew Point 65 °F
Humidity 84%
Rainfall in
Snow Depth Not available.
6:39 AM 9:01 PM
Waning Crescent, 23% visible
METAR KOKK 291115Z AUTO 00000KT 5SM OVC004 18/15 A2993 RMK AO1
Pressure 29.93 in
Visibility 5.0 miles
Clouds Overcast 400 ft
Dew Point 65 °F
Humidity 84%
Rainfall in
Snow Depth Not available.
6:39 AM 9:01 PM
Waning Crescent, 23% visible
METAR KOKK 291115Z AUTO 00000KT 5SM OVC004 18/15 A2993 RMK AO1

10-Day Weather Forecast

Almanac

Astronomy

Jul. 29, 2016 Rise Set
Actual Time
Civil Twilight
Nautical Twilight
Astronomical Twilight
Moon
Length of Visible Light
Length of Day
Tomorrow will be .
, % of the Moon is Illuminated

Today's Extremes

State Highs State Lows

Community

WunderPhotos

Upload Photos

1,928,312 photos uploaded!

WunderBlog® & News

Nearby

Air Quality

  Air Quality AQ Index Pollutant
Not available.

Snow Depth

Station Depth Elevation

Earthquake Activity

City Distance Mag. Time & Date
Minimum magnitude displayed is 2.5.

Coastal Water Temperatures

Place Temperature

Stations

Nearby Weather Stations

Station Location Temp. Windchill Dew Point Humidity Wind Precip. Elev Updated Type
                   

Watches & Warnings

There are currently no watches in effect.